Strona główna
METAR-TAF:

METAR-TAF

Lotnisko :

Benton Harbor, Michigan, Stany Zjednoczone

Szerokość geograficzna: 42-07-43N, Długość geograficzna: 086-25-42W, wysokość: 196 m

Aktualna obserwacja pogody

Raport powstał 53 minut temu, godzina 06:53 UTC
Wiatr 3 kt od wschód
Temperatura -8°C
Wilgotność 73%
Ciśnienie 1031 hPa
Widzialność: 16.1 km
bezchmurnie

METAR: KBEH 200653Z AUTO 09003KT 10SM CLR M08/M12 A3044 RMK AO2 SLP319 T10831117 $

czas: 02:46 (07:46 UTC)


TAF: brakujący

Obserwacja i prognoza pogody dla ponad 4000 lotnisk (raport METAR i TAF).

Dostępne stacje oznaczono żółtymi i czerwonymi punktami na mapie.

Najedź kursorem aby zobaczyć nazwę stacji.

Kliknij aby zobaczyć obserwacje i prognozy pogody.

Aby zmienić mapę: kliknij na zielony przycisk z czarnym krzyżykiem, aby powiększyć; na zielony przycisk z myślnikiem, aby pomniejszyć; na zielone strzałki, aby przejść do map sąsiednich.


METAR-TAF: